createdAt,value
2019-01-12T00:05:59.276Z,49.80
2019-01-12T00:19:22.008Z,49.90
2019-01-12T00:59:46.789Z,50.50
2019-01-12T01:13:09.480Z,50.50
2019-01-12T01:26:32.351Z,50.60
2019-01-12T01:39:55.230Z,50.70
2019-01-12T01:53:17.983Z,50.80
2019-01-12T02:06:40.763Z,50.80
2019-01-12T02:20:03.557Z,50.90
2019-01-12T02:33:26.442Z,51.00
2019-01-12T02:46:49.227Z,51.70
2019-01-12T03:00:12.040Z,51.20
2019-01-12T03:13:34.835Z,51.20
2019-01-12T03:26:57.660Z,51.40
2019-01-12T03:40:20.491Z,51.30
2019-01-12T03:53:43.321Z,51.20
2019-01-12T04:07:06.094Z,51.10
2019-01-12T04:20:28.954Z,51.00
2019-01-12T04:33:51.745Z,51.70
2019-01-12T04:47:14.549Z,51.20
2019-01-12T05:00:37.349Z,51.30
2019-01-12T05:14:00.190Z,51.20
2019-01-12T05:27:23.003Z,51.30
2019-01-12T05:40:45.809Z,51.30
2019-01-12T05:54:08.634Z,51.30
2019-01-12T06:07:31.453Z,51.30
2019-01-12T06:20:54.288Z,51.40
2019-01-12T06:34:17.098Z,51.40
2019-01-12T06:47:39.915Z,51.40
2019-01-12T07:01:02.695Z,51.50
2019-01-12T07:14:25.595Z,51.40
2019-01-12T07:27:48.399Z,51.50
2019-01-12T07:41:11.152Z,51.50
2019-01-12T08:07:35.684Z,51.50
2019-01-12T08:20:42.827Z,51.50
2019-01-12T08:46:54.948Z,51.30
2019-01-12T09:00:02.143Z,51.20
2019-01-12T09:13:09.317Z,51.10
2019-01-12T09:26:16.470Z,51.10
2019-01-12T09:52:27.085Z,50.80
2019-01-12T10:05:34.234Z,51.00
2019-01-12T10:18:41.366Z,51.10
2019-01-12T10:31:48.509Z,51.70
2019-01-12T10:44:55.637Z,51.10
2019-01-12T10:58:02.840Z,50.70
2019-01-12T11:11:26.828Z,50.60
2019-01-12T11:37:51.334Z,51.10
2019-01-12T11:50:58.490Z,51.20
2019-01-12T12:04:05.603Z,51.00
2019-01-12T12:17:12.783Z,51.20
2019-01-12T12:43:23.489Z,51.30
2019-01-12T12:56:30.682Z,51.40
2019-01-12T13:09:37.866Z,51.30
2019-01-12T13:22:45.045Z,51.30
2019-01-12T13:35:52.234Z,51.70
2019-01-12T13:48:59.446Z,51.60
2019-01-12T14:02:23.227Z,51.80
2019-01-12T14:15:46.055Z,52.50
2019-01-12T14:29:08.844Z,51.70
2019-01-12T14:42:31.657Z,51.80
2019-01-12T14:55:54.546Z,51.80
2019-01-12T15:09:17.295Z,51.70
2019-01-12T15:22:40.131Z,51.50
2019-01-12T15:36:02.925Z,51.30
2019-01-12T15:49:25.802Z,51.50
2019-01-12T16:02:48.577Z,51.60
2019-01-12T16:16:11.386Z,51.40
2019-01-12T16:29:34.211Z,51.40
2019-01-12T16:42:57.012Z,51.40
2019-01-12T16:56:19.810Z,51.30
2019-01-12T17:09:42.660Z,51.50
2019-01-12T17:23:05.449Z,51.20
2019-01-12T17:36:28.366Z,51.00
2019-01-12T17:49:51.112Z,50.90
2019-01-12T18:03:14.049Z,49.60
2019-01-12T18:16:36.728Z,49.70
2019-01-12T18:29:59.648Z,49.80
2019-01-12T18:43:22.413Z,49.80
2019-01-12T18:56:45.174Z,49.90
2019-01-12T19:10:07.994Z,49.80
2019-01-12T19:23:30.928Z,49.90
2019-01-12T19:36:53.603Z,50.00
2019-01-12T19:50:16.447Z,50.00
2019-01-12T20:03:39.221Z,49.90
2019-01-12T20:17:02.056Z,49.90
2019-01-12T20:30:24.906Z,50.10
2019-01-12T20:43:47.753Z,50.70
2019-01-12T20:57:10.595Z,50.10
2019-01-12T21:10:33.409Z,50.20
2019-01-12T21:23:56.136Z,50.10
2019-01-12T21:37:18.948Z,50.10
2019-01-12T21:50:41.807Z,50.00
2019-01-12T22:04:04.708Z,49.90
2019-01-12T22:17:27.510Z,49.80
2019-01-12T22:30:50.315Z,49.40
2019-01-12T22:44:13.069Z,49.10
2019-01-12T22:57:35.856Z,48.90
2019-01-12T23:10:58.761Z,48.60
2019-01-12T23:24:21.512Z,48.30
2019-01-12T23:37:44.408Z,48.00
2019-01-12T23:51:07.145Z,48.00
